createdAt,value
2023-03-04T00:00:26.020Z,99.20
2023-03-04T00:02:52.593Z,99.30
2023-03-04T00:05:19.718Z,99.20
2023-03-04T00:07:45.958Z,99.20
2023-03-04T00:10:12.163Z,99.10
2023-03-04T00:12:38.355Z,99.20
2023-03-04T00:15:05.350Z,99.10
2023-03-04T00:17:31.568Z,99.20
2023-03-04T00:19:57.883Z,99.20
2023-03-04T00:22:24.073Z,99.10
2023-03-04T00:24:50.232Z,98.80
2023-03-04T00:27:16.394Z,98.80
2023-03-04T00:29:42.791Z,99.10
2023-03-04T00:32:09.035Z,98.50
2023-03-04T00:34:35.770Z,98.40
2023-03-04T00:37:02.974Z,98.50
2023-03-04T00:39:29.450Z,98.50
2023-03-04T00:41:55.704Z,98.40
2023-03-04T00:44:21.884Z,98.40
2023-03-04T00:46:48.037Z,98.40
2023-03-04T00:49:14.268Z,98.30
2023-03-04T00:51:40.486Z,98.20
2023-03-04T00:54:06.666Z,98.20
2023-03-04T00:56:32.776Z,98.30
2023-03-04T00:58:59.266Z,98.10
2023-03-04T01:01:25.500Z,98.00
2023-03-04T01:03:51.691Z,98.00
2023-03-04T01:06:17.829Z,97.90
2023-03-04T01:08:43.982Z,98.00
2023-03-04T01:11:10.218Z,98.00
2023-03-04T01:13:37.358Z,97.80
2023-03-04T01:16:05.368Z,97.90
2023-03-04T01:18:31.746Z,97.90
2023-03-04T01:20:57.898Z,97.90
2023-03-04T01:23:24.089Z,97.90
2023-03-04T01:25:52.084Z,97.90
2023-03-04T01:28:18.260Z,97.80
2023-03-04T01:30:45.355Z,97.80
2023-03-04T01:33:11.668Z,97.90
2023-03-04T01:35:37.834Z,97.70
2023-03-04T01:38:05.187Z,97.60
2023-03-04T01:40:31.466Z,97.40
2023-03-04T01:42:57.706Z,97.20
2023-03-04T01:45:23.909Z,97.20
2023-03-04T01:47:51.503Z,97.20
2023-03-04T01:50:27.123Z,97.20
2023-03-04T01:52:53.574Z,97.10
2023-03-04T01:55:20.610Z,97.50
2023-03-04T01:57:48.057Z,97.20
2023-03-04T02:00:24.555Z,97.10
2023-03-04T02:02:56.301Z,96.70
2023-03-04T02:05:22.461Z,96.40
2023-03-04T02:07:50.089Z,96.00
2023-03-04T02:10:17.232Z,95.90
2023-03-04T02:12:44.071Z,99.90
2023-03-04T02:15:10.391Z,96.00
2023-03-04T02:17:36.641Z,95.90
2023-03-04T02:20:16.769Z,95.90
2023-03-04T02:22:58.090Z,95.80
2023-03-04T02:25:28.681Z,95.50
2023-03-04T02:30:22.598Z,95.20
2023-03-04T02:32:48.751Z,95.30
2023-03-04T02:35:18.563Z,99.90
2023-03-04T02:40:21.835Z,94.10
2023-03-04T02:42:48.043Z,94.50
2023-03-04T02:45:37.061Z,94.00
2023-03-04T02:48:03.778Z,93.80
2023-03-04T02:50:32.960Z,93.70
2023-03-04T02:52:59.092Z,99.10
2023-03-04T02:55:25.620Z,99.40
2023-03-04T02:57:52.518Z,96.10
2023-03-04T03:00:19.041Z,93.40
2023-03-04T03:02:45.221Z,99.10
2023-03-04T03:05:12.070Z,93.50
2023-03-04T03:07:38.200Z,94.70
2023-03-04T03:10:05.308Z,93.40
2023-03-04T03:19:51.968Z,99.90
2023-03-04T03:24:45.165Z,98.40
2023-03-04T03:32:05.442Z,93.70
2023-03-04T03:46:44.562Z,95.60
2023-03-04T03:51:37.561Z,95.60
2023-03-04T03:56:30.324Z,95.50
2023-03-04T03:58:57.349Z,92.80
2023-03-04T04:01:23.592Z,93.00
2023-03-04T04:03:49.704Z,93.00
2023-03-04T04:06:15.948Z,93.20
2023-03-04T04:08:42.080Z,93.10
2023-03-04T04:11:10.360Z,93.20
2023-03-04T04:13:38.918Z,93.00
2023-03-04T04:16:07.698Z,93.00
2023-03-04T04:18:34.024Z,93.10
2023-03-04T04:21:00.271Z,93.10
2023-03-04T04:23:26.509Z,98.00
2023-03-04T04:25:55.221Z,94.00
2023-03-04T04:28:21.520Z,93.10
2023-03-04T04:30:48.644Z,98.00
2023-03-04T04:33:15.363Z,94.40
2023-03-04T04:38:08.522Z,98.10
2023-03-04T04:40:35.002Z,93.00
2023-03-04T04:43:01.203Z,93.10
2023-03-04T04:45:27.466Z,98.00
2023-03-04T04:47:57.050Z,93.10
2023-03-04T04:50:24.315Z,98.20
2023-03-04T04:52:50.530Z,95.20
2023-03-04T05:00:10.826Z,92.40
2023-03-04T05:02:37.861Z,98.50
2023-03-04T05:05:05.083Z,98.30
2023-03-04T05:09:57.786Z,98.10
2023-03-04T05:22:10.400Z,94.70
2023-03-04T05:29:30.091Z,95.20
2023-03-04T05:34:22.993Z,94.90
2023-03-04T05:44:09.533Z,96.90
2023-03-04T05:46:35.859Z,94.10
2023-03-04T06:15:57.932Z,91.30
2023-03-04T06:18:24.380Z,91.40
2023-03-04T06:20:51.074Z,92.60
2023-03-04T06:23:17.332Z,96.70
2023-03-04T06:25:43.533Z,91.00
2023-03-04T06:28:09.805Z,91.00
2023-03-04T06:30:35.967Z,90.90
2023-03-04T06:33:02.185Z,91.20
2023-03-04T06:35:28.453Z,90.90
2023-03-04T06:37:54.735Z,91.00
2023-03-04T06:40:20.860Z,91.20
2023-03-04T06:42:47.160Z,91.10
2023-03-04T06:45:14.401Z,91.00
2023-03-04T06:47:40.647Z,91.10
2023-03-04T06:50:08.063Z,91.00
2023-03-04T06:52:34.353Z,91.00
2023-03-04T06:55:00.510Z,91.00
2023-03-04T06:57:27.399Z,91.10
2023-03-04T06:59:53.576Z,91.00
2023-03-04T07:02:19.852Z,91.10
2023-03-04T07:04:46.083Z,90.90
2023-03-04T07:07:12.792Z,91.30
2023-03-04T07:09:39.049Z,91.30
2023-03-04T07:12:05.864Z,91.10
2023-03-04T07:14:32.049Z,91.40
2023-03-04T07:16:58.242Z,91.30
2023-03-04T07:19:25.591Z,91.20
2023-03-04T07:21:51.765Z,96.20
2023-03-04T07:29:12.095Z,90.90
2023-03-04T07:34:06.564Z,94.70
2023-03-04T07:36:33.796Z,91.20
2023-03-04T07:43:55.058Z,94.60
2023-03-04T07:46:21.366Z,99.70
2023-03-04T07:48:47.606Z,95.10
2023-03-04T07:51:15.873Z,91.10
2023-03-04T07:53:43.681Z,99.90
2023-03-04T07:56:12.637Z,99.00
2023-03-04T08:01:18.802Z,91.40
2023-03-04T08:06:13.409Z,92.00
2023-03-04T08:08:39.853Z,91.70
2023-03-04T08:11:11.022Z,92.10
2023-03-04T08:16:04.775Z,98.10
2023-03-04T08:18:31.093Z,92.60
2023-03-04T08:20:57.321Z,98.00
2023-03-04T08:23:23.778Z,93.20
2023-03-04T08:28:18.167Z,94.40
2023-03-04T08:35:39.040Z,94.90
2023-03-04T08:38:06.190Z,97.10
2023-03-04T08:40:32.768Z,94.00
2023-03-04T08:52:49.242Z,97.90
2023-03-04T09:00:10.321Z,95.30
2023-03-04T09:02:36.700Z,96.40
2023-03-04T09:05:03.649Z,97.00
2023-03-04T09:07:29.840Z,97.00
2023-03-04T09:09:56.107Z,92.40
2023-03-04T09:12:23.249Z,97.20
2023-03-04T09:15:01.140Z,92.60
2023-03-04T09:17:35.368Z,92.90
2023-03-04T09:20:04.544Z,92.40
2023-03-04T09:22:31.025Z,96.80
2023-03-04T09:24:58.162Z,96.70
2023-03-04T09:34:47.507Z,92.00
2023-03-04T09:37:13.784Z,92.30
2023-03-04T09:39:40.505Z,92.10
2023-03-04T09:42:08.334Z,97.00
2023-03-04T09:44:41.915Z,96.60
2023-03-04T09:47:17.331Z,91.90
2023-03-04T09:49:53.824Z,92.30
2023-03-04T09:53:07.279Z,92.80
2023-03-04T09:55:45.409Z,99.90
2023-03-04T09:58:42.802Z,93.40
2023-03-04T10:01:21.795Z,95.10
2023-03-04T10:05:12.707Z,94.50
2023-03-04T10:07:40.829Z,94.70
2023-03-04T10:10:16.247Z,95.00
2023-03-04T10:12:47.116Z,96.70
2023-03-04T10:15:55.812Z,95.20
2023-03-04T10:19:22.154Z,96.90
2023-03-04T10:21:53.546Z,94.70
2023-03-04T10:24:23.830Z,98.50
2023-03-04T10:26:52.096Z,99.90
2023-03-04T10:29:20.514Z,94.50
2023-03-04T10:31:49.237Z,94.30
2023-03-04T10:34:16.559Z,99.70
2023-03-04T10:37:02.572Z,94.00
2023-03-04T10:39:33.994Z,93.30
2023-03-04T10:42:48.919Z,93.00
2023-03-04T10:45:25.358Z,99.90
2023-03-04T10:47:56.104Z,93.30
2023-03-04T10:50:27.159Z,98.70
2023-03-04T10:52:55.215Z,99.20
2023-03-04T10:55:29.355Z,93.00
2023-03-04T10:58:01.463Z,92.90
2023-03-04T11:00:33.805Z,93.00
2023-03-04T11:03:33.197Z,99.90
2023-03-04T11:06:24.705Z,99.90
2023-03-04T11:09:00.929Z,92.80
2023-03-04T11:11:33.941Z,91.60
2023-03-04T11:14:02.665Z,92.50
2023-03-04T11:16:30.523Z,92.10
2023-03-04T11:19:04.695Z,92.10
2023-03-04T11:21:34.685Z,99.90
2023-03-04T11:24:27.460Z,99.90
2023-03-04T11:27:58.667Z,93.90
2023-03-04T11:30:45.425Z,92.10
2023-03-04T11:33:27.514Z,96.80
2023-03-04T11:36:14.289Z,95.10
2023-03-04T11:38:50.296Z,92.80
2023-03-04T11:41:55.243Z,92.90
2023-03-04T11:44:22.304Z,99.90
2023-03-04T11:49:42.287Z,92.30
2023-03-04T11:53:05.722Z,98.80
2023-03-04T11:55:51.183Z,90.00
2023-03-04T12:00:29.910Z,87.80
2023-03-04T12:04:01.212Z,88.60
2023-03-04T12:06:51.537Z,89.70
2023-03-04T12:10:43.556Z,90.10
2023-03-04T12:14:49.403Z,95.40
2023-03-04T12:17:53.577Z,91.30
2023-03-04T12:21:15.990Z,90.20
2023-03-04T12:25:23.846Z,89.90
2023-03-04T12:34:06.526Z,90.00
2023-03-04T12:37:25.188Z,89.80
2023-03-04T12:40:22.039Z,85.90
2023-03-04T12:43:14.430Z,83.10
2023-03-04T12:49:16.585Z,82.60
2023-03-04T12:52:03.049Z,88.10
2023-03-04T12:54:39.828Z,91.40
2023-03-04T12:57:24.909Z,91.70
2023-03-04T13:06:54.985Z,91.00
2023-03-04T13:09:33.280Z,91.20
2023-03-04T13:12:22.192Z,91.20
2023-03-04T13:17:22.364Z,91.80
2023-03-04T13:21:39.323Z,92.00
2023-03-04T13:24:43.862Z,93.60
2023-03-04T13:30:42.659Z,94.40
2023-03-04T13:33:55.931Z,93.50
2023-03-04T13:36:31.532Z,93.10
2023-03-04T13:39:43.629Z,92.10
2023-03-04T13:42:38.570Z,92.00
2023-03-04T13:45:28.161Z,92.20
2023-03-04T13:47:54.356Z,92.00
2023-03-04T13:50:53.977Z,91.30
2023-03-04T13:54:43.109Z,90.60
2023-03-04T13:57:21.403Z,90.40
2023-03-04T13:59:57.225Z,90.50
2023-03-04T14:02:25.356Z,90.10
2023-03-04T14:04:59.073Z,90.70
2023-03-04T14:07:32.977Z,90.90
2023-03-04T14:10:04.973Z,90.80
2023-03-04T14:12:33.646Z,91.40
2023-03-04T14:15:02.200Z,91.40
2023-03-04T14:17:30.648Z,91.40
2023-03-04T14:19:56.849Z,91.60
2023-03-04T14:22:34.018Z,91.40
2023-03-04T14:25:26.030Z,92.00
2023-03-04T14:28:43.641Z,92.10
2023-03-04T14:31:18.936Z,92.20
2023-03-04T14:33:50.832Z,92.00
2023-03-04T14:36:20.132Z,91.70
2023-03-04T14:38:54.396Z,91.40
2023-03-04T14:41:29.080Z,91.30
2023-03-04T14:44:40.554Z,91.40
2023-03-04T14:47:17.872Z,91.20
2023-03-04T14:49:44.657Z,91.00
2023-03-04T14:56:00.610Z,91.10
2023-03-04T14:58:31.244Z,92.00
2023-03-04T15:03:37.233Z,95.30
2023-03-04T15:06:23.687Z,95.90
2023-03-04T15:09:26.157Z,96.30
2023-03-04T15:12:55.082Z,95.30
2023-03-04T15:19:35.787Z,94.80
2023-03-04T15:22:06.274Z,93.90
2023-03-04T15:24:32.929Z,93.90
2023-03-04T15:27:00.508Z,93.80
2023-03-04T15:29:28.974Z,92.80
2023-03-04T15:31:56.783Z,92.80
2023-03-04T15:34:23.634Z,93.00
2023-03-04T15:36:51.684Z,93.10
2023-03-04T15:39:19.593Z,92.90
2023-03-04T15:41:47.823Z,93.10
2023-03-04T15:44:14.216Z,93.10
2023-03-04T15:46:41.823Z,92.90
2023-03-04T15:49:08.330Z,92.40
2023-03-04T15:51:35.865Z,92.90
2023-03-04T15:54:02.313Z,92.20
2023-03-04T15:56:30.686Z,92.20
2023-03-04T15:59:08.719Z,92.30
2023-03-04T16:01:35.230Z,91.90
2023-03-04T16:04:01.960Z,91.50
2023-03-04T16:06:29.666Z,91.40
2023-03-04T16:08:57.118Z,90.90
2023-03-04T16:11:29.619Z,90.50
2023-03-04T16:13:56.508Z,90.70
2023-03-04T16:16:25.490Z,90.50
2023-03-04T16:18:53.606Z,90.40
2023-03-04T16:21:22.509Z,90.70
2023-03-04T16:23:49.313Z,91.10
2023-03-04T16:26:17.629Z,90.80
2023-03-04T16:28:43.873Z,90.70
2023-03-04T16:31:13.760Z,90.80
2023-03-04T16:33:42.047Z,90.80
2023-03-04T16:37:12.461Z,90.40
2023-03-04T16:39:41.603Z,90.80
2023-03-04T16:42:14.020Z,91.00
2023-03-04T16:44:40.402Z,91.10
2023-03-04T16:47:07.339Z,91.20
2023-03-04T16:49:34.612Z,91.70
2023-03-04T16:52:00.889Z,92.00
2023-03-04T16:54:29.735Z,92.20
2023-03-04T16:56:57.816Z,91.80
2023-03-04T16:59:24.848Z,92.00
2023-03-04T17:01:53.595Z,91.90
2023-03-04T17:04:20.364Z,91.80
2023-03-04T17:06:46.899Z,91.90
2023-03-04T17:09:13.229Z,91.80
2023-03-04T17:11:39.665Z,91.90
2023-03-04T17:14:06.502Z,91.80
2023-03-04T17:16:33.262Z,91.60
2023-03-04T17:18:59.741Z,91.50
2023-03-04T17:21:26.348Z,91.40
2023-03-04T17:23:53.463Z,91.50
2023-03-04T17:26:20.429Z,91.50
2023-03-04T17:28:49.323Z,91.70
2023-03-04T17:31:17.065Z,91.80
2023-03-04T17:33:44.616Z,92.00
2023-03-04T17:36:12.276Z,92.00
2023-03-04T17:38:39.114Z,92.00
2023-03-04T17:41:07.714Z,92.30
2023-03-04T17:43:33.946Z,92.50
2023-03-04T17:46:11.225Z,93.10
2023-03-04T17:48:37.893Z,93.80
2023-03-04T17:51:05.210Z,94.10
2023-03-04T17:53:32.469Z,94.30
2023-03-04T17:56:01.068Z,94.50
2023-03-04T17:58:28.821Z,94.80
2023-03-04T18:01:05.321Z,94.80
2023-03-04T18:03:32.010Z,94.90
2023-03-04T18:06:00.039Z,94.90
2023-03-04T18:08:27.654Z,94.90
2023-03-04T18:10:54.539Z,94.80
2023-03-04T18:13:21.015Z,94.80
2023-03-04T18:15:47.351Z,94.90
2023-03-04T18:18:16.327Z,95.00
2023-03-04T18:20:42.899Z,95.00
2023-03-04T18:23:11.825Z,95.10
2023-03-04T18:25:38.802Z,95.00
2023-03-04T18:28:17.963Z,95.00
2023-03-04T18:30:49.515Z,94.90
2023-03-04T18:33:16.302Z,94.90
2023-03-04T18:35:45.631Z,94.80
2023-03-04T18:38:19.070Z,94.60
2023-03-04T18:40:48.358Z,94.80
2023-03-04T18:43:15.801Z,94.40
2023-03-04T18:45:46.483Z,94.50
2023-03-04T18:48:13.586Z,94.20
2023-03-04T18:50:41.001Z,94.30
2023-03-04T18:53:15.943Z,94.40
2023-03-04T18:55:45.727Z,94.20
2023-03-04T18:58:13.466Z,94.20
2023-03-04T19:00:40.435Z,94.20
2023-03-04T19:03:08.351Z,94.20
2023-03-04T19:05:35.592Z,94.10
2023-03-04T19:08:02.031Z,94.10
2023-03-04T19:10:30.726Z,93.60
2023-03-04T19:12:59.665Z,92.20
2023-03-04T19:15:27.373Z,91.70
2023-03-04T19:17:54.105Z,91.40
2023-03-04T19:20:20.679Z,91.10
2023-03-04T19:22:48.436Z,91.50
2023-03-04T19:25:15.529Z,91.20
2023-03-04T19:27:42.758Z,91.00
2023-03-04T19:30:10.047Z,91.00
2023-03-04T19:32:36.439Z,90.60
2023-03-04T19:35:03.910Z,90.70
2023-03-04T19:37:30.482Z,91.00
2023-03-04T19:39:58.273Z,90.80
2023-03-04T19:42:25.378Z,90.20
2023-03-04T19:44:52.433Z,90.50
2023-03-04T19:47:19.713Z,90.10
2023-03-04T19:49:46.728Z,90.30
2023-03-04T19:52:13.654Z,90.30
2023-03-04T19:54:41.796Z,90.20
2023-03-04T19:57:08.737Z,90.40
2023-03-04T19:59:35.614Z,88.60
2023-03-04T20:02:03.414Z,86.50
2023-03-04T20:04:29.884Z,85.60
2023-03-04T20:06:57.932Z,83.70
2023-03-04T20:09:24.927Z,84.90
2023-03-04T20:11:58.102Z,83.50
2023-03-04T20:14:26.884Z,84.30
2023-03-04T20:16:53.254Z,84.20
2023-03-04T20:19:20.165Z,84.00
2023-03-04T20:21:46.638Z,82.80
2023-03-04T20:24:15.241Z,83.10
2023-03-04T20:26:42.834Z,82.30
2023-03-04T20:29:10.353Z,82.60
2023-03-04T20:31:38.242Z,82.30
2023-03-04T20:34:07.266Z,81.10
2023-03-04T20:36:34.327Z,79.80
2023-03-04T20:39:02.821Z,81.00
2023-03-04T20:41:33.050Z,79.30
2023-03-04T20:43:59.657Z,78.90
2023-03-04T20:46:47.296Z,79.00
2023-03-04T20:49:23.180Z,78.30
2023-03-04T20:51:51.114Z,78.80
2023-03-04T20:54:17.797Z,78.70
2023-03-04T20:56:45.734Z,77.50
2023-03-04T20:59:12.855Z,78.20
2023-03-04T21:01:41.055Z,77.60
2023-03-04T21:04:08.230Z,77.60
2023-03-04T21:06:36.445Z,78.60
2023-03-04T21:09:05.681Z,77.30
2023-03-04T21:11:39.193Z,77.90
2023-03-04T21:14:07.485Z,78.10
2023-03-04T21:16:33.841Z,77.90
2023-03-04T21:19:01.149Z,79.00
2023-03-04T21:21:28.274Z,79.30
2023-03-04T21:23:55.102Z,77.70
2023-03-04T21:26:24.565Z,77.40
2023-03-04T21:28:51.827Z,78.30
2023-03-04T21:31:29.543Z,77.70
2023-03-04T21:33:55.923Z,79.60
2023-03-04T21:36:24.280Z,79.70
2023-03-04T21:38:51.636Z,79.30
2023-03-04T21:41:20.443Z,78.60
2023-03-04T21:43:48.513Z,79.30
2023-03-04T21:46:15.649Z,79.60
2023-03-04T21:48:43.870Z,81.10
2023-03-04T21:51:13.768Z,81.30
2023-03-04T21:53:40.593Z,81.70
2023-03-04T21:56:07.029Z,81.50
2023-03-04T21:58:35.461Z,81.60
2023-03-04T22:01:15.734Z,82.40
2023-03-04T22:03:43.768Z,82.60
2023-03-04T22:06:11.150Z,83.30
2023-03-04T22:08:39.634Z,83.40
2023-03-04T22:11:07.037Z,84.20
2023-03-04T22:13:33.493Z,84.20
2023-03-04T22:16:00.171Z,84.40
2023-03-04T22:18:26.647Z,84.90
2023-03-04T22:21:02.393Z,86.10
2023-03-04T22:23:29.019Z,86.80
2023-03-04T22:25:55.759Z,86.40
2023-03-04T22:28:24.667Z,86.80
2023-03-04T22:30:51.405Z,87.00
2023-03-04T22:33:17.837Z,86.50
2023-03-04T22:35:44.377Z,84.90
2023-03-04T22:38:10.685Z,84.10
2023-03-04T22:40:36.897Z,84.20
2023-03-04T22:43:04.302Z,84.30
2023-03-04T22:45:32.687Z,84.10
2023-03-04T22:47:59.288Z,84.50
2023-03-04T22:50:25.626Z,84.50
2023-03-04T22:52:52.281Z,85.30
2023-03-04T22:55:20.554Z,85.70
2023-03-04T22:57:47.782Z,86.40
2023-03-04T23:00:20.792Z,86.80
2023-03-04T23:02:47.505Z,86.60
2023-03-04T23:05:14.059Z,86.70
2023-03-04T23:07:40.467Z,86.30
2023-03-04T23:10:09.147Z,86.50
2023-03-04T23:12:35.684Z,86.10
2023-03-04T23:15:02.152Z,86.00
2023-03-04T23:17:29.365Z,86.00
2023-03-04T23:19:56.416Z,85.60
2023-03-04T23:22:22.630Z,85.60
2023-03-04T23:24:48.972Z,85.80
2023-03-04T23:27:15.284Z,86.10
2023-03-04T23:29:42.098Z,85.70
2023-03-04T23:32:08.414Z,86.10
2023-03-04T23:34:36.358Z,86.00
2023-03-04T23:37:03.282Z,86.20
2023-03-04T23:39:29.792Z,86.50
2023-03-04T23:41:56.085Z,85.90
2023-03-04T23:44:22.371Z,86.60
2023-03-04T23:46:48.626Z,86.20
2023-03-04T23:49:17.792Z,86.70
2023-03-04T23:51:45.024Z,86.90
2023-03-04T23:54:14.240Z,87.00
2023-03-04T23:56:40.386Z,88.70
2023-03-04T23:59:07.204Z,89.40
